Vanceburg, Kentucky
Current Conditions -  °F | °C
As of 2:55 AM on Thursday 29 Jan 2015 (Local Time) from KFGX Reporting Station
Clear Clear  
Wind Chill: 24°   Ceiling: Unl
Heat Index: 32°   Visibility: 10mi
Dew Point: 22°   Wind: 10mph
Humidity: 66%   Direction: 150°SSE
Pressure: 30.11"   Gusts: NA
Location:  38.6°N, 83.32°W
Report Text: KFGX 290755Z AUTO 15009KT 10SM CLR 00/M06 A3011 RMK AO2 T00001057
Loading
Personal Weather Stations






























Interactive Weather Map New forecast layout! Learn more

10-Day Weather Forecast

Advertisements
Track Severe Weather on mobile